Detall de PIREP

Printer-friendly versionPDF version

[2012/11/11 09:33:00]
Flight IATA:CT3404
Pilot Number:042
Company ICAO:CAT
Aircraft Type:B744/E
PAX:218
Departing Airport: LEBL
Destination Airport: GCLP
Alternate Airport:GCXO
Online: VATSIM
Route:SENIA NEXAS UN975 GOTOR UN857 TERTO
Flight Level:F350
No Slew and time accel
No pause
Crash detect
Detect pilot in Cockpit between each 30 and 45 minutes
09:33 Zero fuel Weight: -218180 Lbs, Fuel Weight: 231510 Lbs
09:33 VATSIM:LEBL 110900Z 32011KT 300V010 9999 FEW020TCU BKN045 13/10 Q1008 NOSIG
09:33 VATSIM:GCLP 110900Z 35014KT 9999 FEW015 SCT030 21/18 Q1021 NOSIG
09:33 VOICE CATALONIAN
09:49 Parking Brakes off
09:57 Take-off
09:57 Take off Weight: 695462 Lbs
09:57 Wind: 334º @ 010 Knots Heading: 245º
09:57 POS N41º 17´ 06´´ E002º 04´ 56´´
09:57 Gear Up: 190 Knots
09:57 Flaps:4 at 190 Knots
09:57 Flaps:3 at 217 Knots
09:57 Flaps:2 at 232 Knots
09:58 Flaps:1 at 246 Knots
09:58 Flaps:0 at 253 Knots
10:12 Wind:199º@035 Knots Heading: 266º Ground Speed: 482 Knots Altitude 28999 ft
10:20 TOC
10:20 Fuel Weight: 211258 Lb
10:27 Wind:339º@033 Knots Heading: 252º Ground Speed: 479 Knots Altitude 34924 ft
10:42 Wind:353º@082 Knots Heading: 220º Ground Speed: 540 Knots Altitude 34934 ft
10:57 Wind:346º@122 Knots Heading: 232º Ground Speed: 548 Knots Altitude 34960 ft
11:12 Wind:356º@118 Knots Heading: 227º Ground Speed: 566 Knots Altitude 34996 ft
11:27 Wind:006º@073 Knots Heading: 222º Ground Speed: 546 Knots Altitude 35059 ft
11:42 Wind:017º@051 Knots Heading: 219º Ground Speed: 536 Knots Altitude 35131 ft
12:08 TOD
12:08 Fuel Weight: 168881 Lb
12:25 Flaps:1 at 229 Knots
12:30 Flaps:2 at 206 Knots
12:32 Flaps:3 at 190 Knots
12:35 Flaps:4 at 178 Knots
12:36 Gear Down: 177 Knots
12:36 Flaps:5 at 177 Knots
12:36 Flaps:6 at 153 Knots
12:39 TouchDown:Rate -136 ft/min Speed: 145 Knots
12:39 VATSIM:GCLP 111200Z 01022KT 9999 BKN020 23/17 Q1022 NOSIG
12:39 Land
12:39 Wind:018º@020 Knots
12:39 Heading: 021º
12:39 Flight Duration: 02:42
12:39 Landing Weight: 626128 Lbs
12:39 POS N27º 55´ 54´´ W015º 23´ 11´´
12:44 Parking brakes on
12:44 Block to Block Duration: 02:55
12:44 Final Fuel: 158227 Lbls
12:44 Spent Fuel: 73282 Lbls
12:44 Flight Length: 1018 NM
12:44 TOD Land Length: 00 NM

Exportar CSV

Powered by Drupal - Modified by Danger4k